Time;durP1;ratioP1;P1;durP2;ratioP2;P2;SDS_P1;SDS_P2;PMS_P1;PMS_P2;Temp;Humidity;BMP_temperature;BMP_pressure;BME280_temperature;BME280_humidity;BME280_pressure;Samples;Min_cycle;Max_cycle;Signal;HPM_P1;HPM_P2
2022/09/27 00:01:01;;;;;;;17.38;13.82;;;;;;;;;;5072625;28;20512;-70
2022/09/27 00:03:29;;;;;;;16.90;14.23;;;;;;;;;;5072953;28;20111;-70
2022/09/27 00:06:01;;;;;;;16.50;14.32;;;;;;;;;;5072744;28;20082;-71
2022/09/27 00:08:29;;;;;;;17.05;15.10;;;;;;;;;;5072777;28;20033;-71
2022/09/27 00:11:03;;;;;;;17.90;16.00;;;;;;;;;;5072730;28;20056;-70
2022/09/27 00:13:31;;;;;;;19.25;16.10;;;;;;;;;;5072994;28;20046;-70
2022/09/27 00:16:00;;;;;;;20.42;16.38;;;;;;;;;;5072781;28;20040;-70
2022/09/27 00:18:27;;;;;;;23.05;17.55;;;;;;;;;;5072624;28;20041;-71
2022/09/27 00:20:55;;;;;;;20.88;16.55;;;;;;;;;;5072668;28;20041;-71
2022/09/27 00:23:22;;;;;;;25.20;18.13;;;;;;;;;;5072625;28;20032;-71
2022/09/27 00:25:56;;;;;;;21.98;18.45;;;;;;;;;;5072582;28;20444;-71
2022/09/27 00:28:24;;;;;;;24.13;19.20;;;;;;;;;;5072545;28;20044;-70
2022/09/27 00:30:52;;;;;;;21.58;18.73;;;;;;;;;;5071411;28;20484;-70
2022/09/27 00:33:20;;;;;;;20.92;18.73;;;;;;;;;;5071171;28;20049;-70
2022/09/27 00:35:48;;;;;;;21.00;18.83;;;;;;;;;;5071252;28;20560;-70
2022/09/27 00:38:15;;;;;;;23.27;19.17;;;;;;;;;;5071156;28;20135;-70
2022/09/27 00:40:43;;;;;;;22.33;18.88;;;;;;;;;;5071072;28;20490;-70
2022/09/27 00:43:22;;;;;;;25.38;19.90;;;;;;;;;;5073523;28;20066;-71
2022/09/27 00:45:52;;;;;;;23.10;18.77;;;;;;;;;;5075387;28;20045;-70
2022/09/27 00:48:23;;;;;;;25.15;20.00;;;;;;;;;;5074980;28;20490;-70
2022/09/27 00:50:52;;;;;;;22.65;20.05;;;;;;;;;;5075005;28;20068;-70
2022/09/27 00:53:24;;;;;;;25.63;19.63;;;;;;;;;;5075259;28;20448;-70
2022/09/27 00:56:01;;;;;;;25.25;21.13;;;;;;;;;;5075357;28;20070;-70
2022/09/27 00:58:29;;;;;;;23.92;20.88;;;;;;;;;;5074874;28;20132;-71
2022/09/27 01:00:58;;;;;;;21.65;18.95;;;;;;;;;;5074788;28;20056;-71
2022/09/27 01:03:31;;;;;;;24.60;20.48;;;;;;;;;;5076207;28;20117;-71
2022/09/27 01:05:59;;;;;;;24.15;21.55;;;;;;;;;;5076255;28;20413;-71
2022/09/27 01:08:27;;;;;;;25.27;20.40;;;;;;;;;;5074747;28;20094;-70
2022/09/27 01:11:15;;;;;;;25.00;21.05;;;;;;;;;;5074605;28;20052;-71
2022/09/27 01:14:02;;;;;;;42.67;34.05;;;;;;;;;;5074440;28;20064;-70
2022/09/27 01:16:49;;;;;;;34.65;29.17;;;;;;;;;;5074404;28;20047;-71
2022/09/27 01:19:29;;;;;;;31.20;26.98;;;;;;;;;;5074567;28;20037;-71
2022/09/27 01:22:09;;;;;;;25.38;21.85;;;;;;;;;;5074847;28;20468;-71
2022/09/27 01:25:00;;;;;;;24.55;21.42;;;;;;;;;;5074630;28;20135;-71
2022/09/27 01:27:47;;;;;;;23.70;20.50;;;;;;;;;;5075951;28;20044;-71
2022/09/27 01:30:17;;;;;;;28.25;23.75;;;;;;;;;;5074324;28;20068;-71
2022/09/27 01:32:51;;;;;;;24.52;21.10;;;;;;;;;;5074261;28;20044;-71
2022/09/27 01:35:39;;;;;;;30.75;25.08;;;;;;;;;;5074296;28;20405;-71
2022/09/27 01:38:19;;;;;;;23.60;19.33;;;;;;;;;;5074385;28;20052;-71
2022/09/27 01:40:52;;;;;;;25.52;20.98;;;;;;;;;;5074179;28;20045;-70
2022/09/27 01:43:44;;;;;;;40.35;34.35;;;;;;;;;;5075964;28;20050;-71
2022/09/27 01:46:15;;;;;;;22.70;20.30;;;;;;;;;;5074311;28;20098;-71
2022/09/27 01:49:17;;;;;;;37.40;30.92;;;;;;;;;;5067463;28;20037;-70
2022/09/27 01:51:48;;;;;;;34.08;28.90;;;;;;;;;;5073909;28;20055;-70
2022/09/27 01:54:19;;;;;;;22.83;20.40;;;;;;;;;;5074719;28;20052;-71
2022/09/27 01:57:09;;;;;;;24.67;21.65;;;;;;;;;;5073925;28;20045;-70
2022/09/27 01:59:42;;;;;;;52.03;40.30;;;;;;;;;;5073787;28;20053;-71
2022/09/27 02:02:38;;;;;;;26.48;22.52;;;;;;;;;;5058816;28;20072;-70
2022/09/27 02:05:29;;;;;;;27.48;22.08;;;;;;;;;;5075112;28;20041;-70
2022/09/27 02:08:04;;;;;;;36.22;30.35;;;;;;;;;;5073654;28;20053;-70
2022/09/27 02:10:35;;;;;;;27.77;23.30;;;;;;;;;;5073480;28;20155;-70
2022/09/27 02:13:09;;;;;;;26.27;22.90;;;;;;;;;;5073782;28;20055;-70
2022/09/27 02:15:50;;;;;;;28.00;22.95;;;;;;;;;;5074617;28;20041;-70
2022/09/27 02:18:33;;;;;;;28.15;23.25;;;;;;;;;;5073558;28;20054;-70
2022/09/27 02:21:04;;;;;;;42.22;33.08;;;;;;;;;;5073327;28;20094;-70
2022/09/27 02:23:32;;;;;;;54.53;43.72;;;;;;;;;;5073392;28;20075;-70
2022/09/27 02:26:10;;;;;;;47.65;37.95;;;;;;;;;;5073366;28;20051;-71
2022/09/27 02:28:44;;;;;;;66.30;52.85;;;;;;;;;;5073421;28;20064;-70
2022/09/27 02:31:19;;;;;;;58.22;47.20;;;;;;;;;;5073442;28;20092;-70
2022/09/27 02:33:48;;;;;;;38.40;29.75;;;;;;;;;;5073241;28;20139;-70
2022/09/27 02:36:16;;;;;;;30.65;26.02;;;;;;;;;;5073006;28;20037;-70
2022/09/27 02:38:44;;;;;;;32.80;28.73;;;;;;;;;;5073040;28;20047;-70
2022/09/27 02:41:14;;;;;;;53.85;42.50;;;;;;;;;;5072859;28;20442;-70
2022/09/27 02:43:42;;;;;;;64.85;50.45;;;;;;;;;;5072989;28;20498;-70
2022/09/27 02:46:10;;;;;;;93.93;71.68;;;;;;;;;;5072819;28;20041;-70
2022/09/27 02:48:49;;;;;;;83.68;67.13;;;;;;;;;;5072912;28;20059;-70
2022/09/27 02:51:24;;;;;;;56.15;44.72;;;;;;;;;;5072755;28;20105;-70
2022/09/27 02:54:00;;;;;;;29.17;25.83;;;;;;;;;;5072691;28;20045;-70
2022/09/27 02:56:47;;;;;;;86.72;68.35;;;;;;;;;;5074172;28;20114;-70
2022/09/27 03:00:11;;;;;;;71.78;55.35;;;;;;;;;;5054100;28;20057;-70
2022/09/27 03:03:13;;;;;;;41.83;34.42;;;;;;;;;;5035766;28;20080;-70
2022/09/27 03:06:01;;;;;;;69.50;53.97;;;;;;;;;;5072629;28;20405;-70
2022/09/27 03:08:29;;;;;;;42.28;35.17;;;;;;;;;;5073558;28;20040;-71
2022/09/27 03:10:56;;;;;;;57.15;45.60;;;;;;;;;;5072425;28;20049;-70
2022/09/27 03:13:24;;;;;;;34.58;28.35;;;;;;;;;;5039494;28;20501;-70
2022/09/27 03:15:52;;;;;;;44.00;33.65;;;;;;;;;;5055794;28;20047;-70
2022/09/27 03:18:48;;;;;;;41.17;32.72;;;;;;;;;;5036285;28;20053;-70
2022/09/27 03:21:34;;;;;;;50.92;38.95;;;;;;;;;;5073464;28;20182;-70
2022/09/27 03:24:02;;;;;;;61.63;46.33;;;;;;;;;;5072126;28;20041;-70
2022/09/27 03:26:30;;;;;;;30.75;23.90;;;;;;;;;;5072050;28;20048;-70
2022/09/27 03:28:58;;;;;;;29.25;24.60;;;;;;;;;;5072038;28;20068;-70
2022/09/27 03:31:25;;;;;;;30.05;24.60;;;;;;;;;;5072079;28;20064;-70
2022/09/27 03:34:11;;;;;;;30.90;24.85;;;;;;;;;;5073267;28;20047;-71
2022/09/27 03:36:39;;;;;;;29.73;25.17;;;;;;;;;;5073194;28;20132;-70
2022/09/27 03:39:06;;;;;;;29.08;23.58;;;;;;;;;;5073121;28;20040;-70
2022/09/27 03:41:34;;;;;;;30.30;24.33;;;;;;;;;;5071762;28;20102;-70
2022/09/27 03:44:01;;;;;;;31.30;25.38;;;;;;;;;;5071685;28;20575;-70
2022/09/27 03:46:29;;;;;;;28.15;22.77;;;;;;;;;;5071744;28;20455;-70
2022/09/27 03:48:57;;;;;;;29.40;23.02;;;;;;;;;;5066610;28;20041;-71
2022/09/27 03:51:24;;;;;;;41.17;31.90;;;;;;;;;;5052856;28;20052;-71
2022/09/27 03:53:52;;;;;;;29.90;25.27;;;;;;;;;;5051651;28;20104;-71
2022/09/27 03:56:19;;;;;;;27.75;22.20;;;;;;;;;;5035106;28;20052;-70
2022/09/27 03:58:47;;;;;;;28.33;22.25;;;;;;;;;;5052792;28;20087;-70
2022/09/27 04:01:16;;;;;;;28.15;22.60;;;;;;;;;;5051645;28;20048;-71
2022/09/27 04:03:46;;;;;;;25.73;21.80;;;;;;;;;;5051802;28;20037;-71
2022/09/27 04:06:33;;;;;;;26.00;21.00;;;;;;;;;;5051578;28;20045;-71
2022/09/27 04:09:02;;;;;;;26.55;22.55;;;;;;;;;;5051502;28;20121;-71
2022/09/27 04:11:49;;;;;;;27.30;23.10;;;;;;;;;;5052813;28;20049;-71
2022/09/27 04:14:17;;;;;;;30.55;25.25;;;;;;;;;;5051227;28;20056;-71
2022/09/27 04:17:04;;;;;;;21.85;19.55;;;;;;;;;;5052420;28;20053;-71
2022/09/27 04:19:49;;;;;;;;;;;;;;;;;;5051485;28;20033;-71
2022/09/27 04:22:17;;;;;;;23.10;20.30;;;;;;;;;;5051080;28;19920;-71
2022/09/27 04:24:45;;;;;;;31.65;26.05;;;;;;;;;;5051125;28;20464;-71
2022/09/27 04:27:26;;;;;;;29.60;24.92;;;;;;;;;;5051157;28;20048;-71
2022/09/27 04:29:54;;;;;;;34.22;28.15;;;;;;;;;;5051088;28;20090;-71
2022/09/27 04:32:44;;;;;;;27.23;22.13;;;;;;;;;;5051989;28;20469;-71
2022/09/27 04:38:35;;;;;;;28.20;24.42;;;;;;;;;;5050998;28;20095;-71
2022/09/27 04:41:03;;;;;;;25.48;20.00;;;;;;;;;;5050813;28;20045;-71
2022/09/27 04:43:33;;;;;;;23.52;20.30;;;;;;;;;;5051108;28;20037;-71
2022/09/27 04:46:02;;;;;;;30.17;24.80;;;;;;;;;;5050896;28;20141;-72
2022/09/27 04:48:30;;;;;;;32.55;25.00;;;;;;;;;;5050927;28;20090;-71
2022/09/27 04:50:59;;;;;;;26.20;20.35;;;;;;;;;;5051087;28;20510;-71
2022/09/27 04:53:28;;;;;;;26.75;20.52;;;;;;;;;;5050870;28;20041;-71
2022/09/27 04:55:57;;;;;;;23.80;19.33;;;;;;;;;;5051005;28;20072;-71
2022/09/27 04:58:24;;;;;;;33.08;25.50;;;;;;;;;;5052233;28;20513;-71
2022/09/27 05:00:54;;;;;;;25.88;20.45;;;;;;;;;;5050682;28;20064;-71
2022/09/27 05:03:49;;;;;;;28.42;24.17;;;;;;;;;;5036265;28;20045;-71
2022/09/27 05:06:16;;;;;;;35.72;26.90;;;;;;;;;;5050924;28;20132;-71
2022/09/27 05:08:45;;;;;;;38.15;31.33;;;;;;;;;;5034624;28;20462;-71
2022/09/27 05:11:18;;;;;;;44.03;34.83;;;;;;;;;;5051840;28;20063;-71
2022/09/27 05:14:04;;;;;;;40.90;34.05;;;;;;;;;;5052591;28;20198;-71
2022/09/27 05:16:41;;;;;;;43.83;38.08;;;;;;;;;;5050958;28;20045;-71
2022/09/27 05:19:38;;;;;;;40.15;34.22;;;;;;;;;;5032578;28;20054;-71
2022/09/27 05:22:11;;;;;;;36.45;31.10;;;;;;;;;;5050499;28;20049;-71
2022/09/27 05:24:39;;;;;;;37.55;29.05;;;;;;;;;;5050839;28;20052;-72
2022/09/27 05:27:07;;;;;;;38.95;29.58;;;;;;;;;;5050644;28;20502;-71
2022/09/27 05:29:35;;;;;;;34.95;28.67;;;;;;;;;;5050481;28;20045;-71
2022/09/27 05:32:14;;;;;;;33.47;28.35;;;;;;;;;;5054544;28;20049;-71
2022/09/27 05:34:44;;;;;;;38.22;29.58;;;;;;;;;;5056717;28;20409;-71
2022/09/27 05:37:11;;;;;;;36.15;30.90;;;;;;;;;;5054291;28;20045;-71
2022/09/27 05:39:41;;;;;;;42.55;34.00;;;;;;;;;;5054074;28;20445;-71
2022/09/27 05:42:10;;;;;;;39.30;33.35;;;;;;;;;;5055203;28;20474;-71
2022/09/27 05:44:38;;;;;;;41.17;30.73;;;;;;;;;;5054505;28;20438;-71
2022/09/27 05:47:06;;;;;;;34.75;29.73;;;;;;;;;;5054130;28;20053;-71
2022/09/27 05:49:34;;;;;;;37.40;30.15;;;;;;;;;;5053874;28;20071;-71
2022/09/27 05:52:03;;;;;;;45.25;34.20;;;;;;;;;;5053908;28;20048;-71
2022/09/27 05:54:30;;;;;;;44.53;32.83;;;;;;;;;;5053867;28;20041;-71
2022/09/27 05:56:59;;;;;;;39.10;25.75;;;;;;;;;;5053836;28;20419;-72
2022/09/27 05:59:43;;;;;;;30.43;23.80;;;;;;;;;;5053725;28;20048;-71
2022/09/27 06:02:20;;;;;;;31.73;22.00;;;;;;;;;;5055306;28;20057;-71
2022/09/27 06:04:57;;;;;;;22.98;18.88;;;;;;;;;;5054887;28;20045;-72
2022/09/27 06:07:31;;;;;;;22.88;18.17;;;;;;;;;;5054002;28;20048;-72
2022/09/27 06:10:00;;;;;;;22.48;17.70;;;;;;;;;;5053130;28;20053;-72
2022/09/27 06:12:27;;;;;;;23.95;18.58;;;;;;;;;;5037148;28;20045;-71
2022/09/27 06:14:55;;;;;;;24.92;17.80;;;;;;;;;;5053360;28;20098;-72
2022/09/27 06:17:33;;;;;;;23.40;17.17;;;;;;;;;;5053443;28;20055;-72
2022/09/27 06:20:08;;;;;;;20.60;15.98;;;;;;;;;;5053273;28;20068;-72
2022/09/27 06:22:37;;;;;;;19.38;15.07;;;;;;;;;;5056997;28;20044;-72
2022/09/27 06:25:04;;;;;;;20.00;15.50;;;;;;;;;;5066089;28;20091;-72
2022/09/27 06:27:36;;;;;;;20.88;16.25;;;;;;;;;;5033375;28;20053;-72
2022/09/27 06:30:14;;;;;;;23.42;19.10;;;;;;;;;;5034442;28;20491;-72
2022/09/27 06:32:57;;;;;;;23.95;18.45;;;;;;;;;;5033286;28;20499;-72
2022/09/27 06:35:35;;;;;;;22.55;18.70;;;;;;;;;;5033129;28;20038;-72
2022/09/27 06:38:10;;;;;;;23.52;18.70;;;;;;;;;;5032926;28;20446;-72
2022/09/27 06:40:45;;;;;;;25.25;20.10;;;;;;;;;;5032277;28;20454;-72
2022/09/27 06:43:21;;;;;;;23.38;19.20;;;;;;;;;;5032802;28;20065;-72
2022/09/27 06:46:09;;;;;;;23.00;19.10;;;;;;;;;;5012981;28;20499;-72
2022/09/27 06:49:00;;;;;;;19.70;17.67;;;;;;;;;;5032666;28;20411;-72
2022/09/27 06:51:28;;;;;;;17.70;15.73;;;;;;;;;;5033051;28;20061;-72
2022/09/27 06:53:56;;;;;;;18.10;16.13;;;;;;;;;;5032679;28;20041;-72
2022/09/27 06:56:24;;;;;;;27.55;20.67;;;;;;;;;;5032552;28;20049;-72
2022/09/27 07:01:41;;;;;;;23.60;20.05;;;;;;;;;;5033965;28;20056;-71
2022/09/27 07:04:29;;;;;;;26.23;21.50;;;;;;;;;;5058293;28;20048;-71
2022/09/27 07:07:17;;;;;;;27.27;21.75;;;;;;;;;;5060189;28;20406;-71
2022/09/27 07:09:46;;;;;;;27.15;23.08;;;;;;;;;;5060356;28;20045;-72
2022/09/27 07:12:13;;;;;;;27.15;22.17;;;;;;;;;;5070589;28;20123;-72
2022/09/27 07:14:42;;;;;;;28.27;22.80;;;;;;;;;;5072011;28;20075;-72
2022/09/27 07:17:15;;;;;;;32.05;25.15;;;;;;;;;;5072071;28;20135;-72
2022/09/27 07:19:48;;;;;;;33.95;25.92;;;;;;;;;;5071989;28;20382;-72
2022/09/27 07:22:15;;;;;;;68.40;52.13;;;;;;;;;;5072095;28;20132;-72
2022/09/27 07:24:46;;;;;;;36.35;31.08;;;;;;;;;;5071870;28;20119;-72
2022/09/27 07:27:15;;;;;;;30.75;24.63;;;;;;;;;;5071969;28;20060;-74
2022/09/27 07:29:43;;;;;;;33.20;26.67;;;;;;;;;;5071800;28;20562;-71
2022/09/27 07:32:11;;;;;;;30.85;25.40;;;;;;;;;;5071777;28;20410;-72
2022/09/27 07:34:39;;;;;;;30.27;24.45;;;;;;;;;;5071612;28;20142;-72
2022/09/27 07:37:07;;;;;;;28.77;22.33;;;;;;;;;;5071664;28;20044;-72
2022/09/27 07:39:38;;;;;;;26.02;20.42;;;;;;;;;;5071574;28;20127;-72
2022/09/27 07:42:06;;;;;;;35.25;27.80;;;;;;;;;;5072038;28;20036;-73
2022/09/27 07:44:36;;;;;;;23.27;20.77;;;;;;;;;;5071766;28;20044;-71
2022/09/27 07:47:26;;;;;;;20.80;17.40;;;;;;;;;;5072487;28;20048;-72
2022/09/27 07:50:12;;;;;;;22.92;19.88;;;;;;;;;;5073172;28;20528;-72
2022/09/27 07:53:04;;;;;;;22.15;18.50;;;;;;;;;;5070950;28;20052;-72
2022/09/27 07:55:36;;;;;;;21.50;17.42;;;;;;;;;;5072802;28;20045;-71
2022/09/27 07:58:18;;;;;;;23.98;20.35;;;;;;;;;;5071551;28;20079;-71
2022/09/27 08:00:47;;;;;;;19.33;17.30;;;;;;;;;;5071468;28;20064;-72
2022/09/27 08:03:15;;;;;;;17.70;15.05;;;;;;;;;;5071622;28;20045;-72
2022/09/27 08:05:44;;;;;;;17.23;15.20;;;;;;;;;;5071445;28;20458;-72
2022/09/27 08:08:11;;;;;;;16.92;13.68;;;;;;;;;;5071229;28;20047;-72
2022/09/27 08:10:46;;;;;;;19.98;14.52;;;;;;;;;;5071126;28;20048;-72
2022/09/27 08:13:18;;;;;;;20.08;11.68;;;;;;;;;;5071570;28;20371;-73
2022/09/27 08:15:49;;;;;;;17.42;11.80;;;;;;;;;;5070879;28;20050;-73
2022/09/27 08:18:17;;;;;;;10.45;9.18;;;;;;;;;;5070994;28;20048;-73
2022/09/27 08:21:08;;;;;;;10.85;8.70;;;;;;;;;;5069302;28;20067;-72
2022/09/27 08:23:46;;;;;;;10.48;8.93;;;;;;;;;;5071119;28;20056;-71
2022/09/27 08:26:21;;;;;;;11.73;8.98;;;;;;;;;;5071237;28;20040;-72
2022/09/27 08:29:11;;;;;;;9.77;8.20;;;;;;;;;;5071034;28;20045;-72
2022/09/27 08:31:43;;;;;;;10.20;9.02;;;;;;;;;;5071037;28;20409;-71
2022/09/27 08:34:11;;;;;;;10.45;9.00;;;;;;;;;;5072209;28;20036;-71
2022/09/27 08:36:38;;;;;;;10.63;8.88;;;;;;;;;;5070989;28;20071;-70
2022/09/27 08:39:06;;;;;;;11.30;9.55;;;;;;;;;;5071148;28;20482;-71
2022/09/27 08:42:14;;;;;;;10.73;9.05;;;;;;;;;;5070960;28;20071;-71
2022/09/27 08:44:48;;;;;;;10.88;9.77;;;;;;;;;;5070921;28;20044;-75
2022/09/27 08:47:17;;;;;;;;;;;;;;;;;;5063322;28;20527;-71
2022/09/27 08:49:49;;;;;;;22.17;18.10;;;;;;;;;;5067501;28;19973;-71
2022/09/27 08:52:23;;;;;;;14.15;10.02;;;;;;;;;;5071224;28;20052;-71
2022/09/27 08:54:51;;;;;;;10.60;9.50;;;;;;;;;;5070950;28;20102;-71
2022/09/27 08:57:21;;;;;;;14.55;10.10;;;;;;;;;;5046633;28;20032;-72
2022/09/27 09:00:01;;;;;;;12.13;9.13;;;;;;;;;;5050837;28;20045;-73
2022/09/27 09:02:29;;;;;;;10.13;8.40;;;;;;;;;;5050831;28;20045;-74
2022/09/27 09:05:22;;;;;;;10.75;9.43;;;;;;;;;;5036452;28;20080;-83
2022/09/27 09:07:53;;;;;;;13.48;9.80;;;;;;;;;;5056411;28;20098;-75
2022/09/27 09:13:19;;;;;;;10.30;9.10;;;;;;;;;;5054348;28;20045;-74
2022/09/27 09:15:54;;;;;;;9.20;7.93;;;;;;;;;;5054263;28;20055;-74
2022/09/27 09:18:44;;;;;;;10.30;7.40;;;;;;;;;;5087868;28;20465;-74
2022/09/27 09:21:20;;;;;;;9.05;8.10;;;;;;;;;;5054034;28;20280;-74
2022/09/27 09:23:49;;;;;;;11.20;8.65;;;;;;;;;;5086894;28;20045;-74
2022/09/27 09:26:35;;;;;;;9.93;8.52;;;;;;;;;;5037624;28;20553;-74
2022/09/27 09:29:21;;;;;;;12.50;9.05;;;;;;;;;;5088096;28;20041;-73
2022/09/27 09:31:58;;;;;;;19.55;16.30;;;;;;;;;;5054363;28;20469;-73
2022/09/27 09:34:33;;;;;;;10.73;9.60;;;;;;;;;;5054288;28;20041;-73
2022/09/27 09:37:00;;;;;;;19.77;15.55;;;;;;;;;;5054249;28;20048;-74
2022/09/27 09:39:33;;;;;;;9.13;7.45;;;;;;;;;;5054262;28;20041;-74
2022/09/27 09:42:06;;;;;;;12.23;9.35;;;;;;;;;;5053978;28;20063;-74
2022/09/27 09:44:41;;;;;;;23.08;18.95;;;;;;;;;;5054133;28;20076;-73
2022/09/27 09:47:15;;;;;;;10.65;8.88;;;;;;;;;;5037642;28;20044;-74
2022/09/27 09:49:45;;;;;;;9.98;8.65;;;;;;;;;;5087636;28;20083;-74
2022/09/27 09:52:18;;;;;;;11.82;8.63;;;;;;;;;;5054007;28;20067;-75
2022/09/27 09:54:48;;;;;;;8.85;7.00;;;;;;;;;;5053967;28;20080;-74
2022/09/27 09:57:28;;;;;;;8.77;7.03;;;;;;;;;;5053829;28;20053;-74
2022/09/27 10:00:07;;;;;;;7.93;7.13;;;;;;;;;;5055029;28;20033;-75
2022/09/27 10:02:43;;;;;;;6.18;5.10;;;;;;;;;;5054923;28;20060;-74
2022/09/27 10:05:21;;;;;;;11.23;7.38;;;;;;;;;;5053900;28;20037;-74
2022/09/27 10:07:58;;;;;;;8.57;6.63;;;;;;;;;;5053986;28;20111;-74
2022/09/27 10:10:26;;;;;;;12.57;9.57;;;;;;;;;;5087177;28;20537;-74
2022/09/27 10:13:16;;;;;;;8.55;5.93;;;;;;;;;;5053545;28;20075;-74
2022/09/27 10:16:11;;;;;;;5.95;5.28;;;;;;;;;;5052837;28;20056;-74
2022/09/27 10:18:40;;;;;;;;;;;;;;;;;;5053236;28;20095;-74
2022/09/27 10:21:14;;;;;;;10.93;7.18;;;;;;;;;;5053507;28;19927;-74
2022/09/27 10:24:03;;;;;;;7.05;5.35;;;;;;;;;;5087030;28;20048;-73
2022/09/27 10:26:50;;;;;;;8.15;6.65;;;;;;;;;;5053426;28;20115;-73
2022/09/27 10:29:24;;;;;;;7.18;5.45;;;;;;;;;;5053314;28;20128;-76
2022/09/27 10:31:52;;;;;;;7.27;5.70;;;;;;;;;;5053336;28;20045;-75
2022/09/27 10:34:25;;;;;;;6.32;5.53;;;;;;;;;;5053305;28;20375;-73
2022/09/27 10:37:19;;;;;;;9.77;7.55;;;;;;;;;;5086571;28;20049;-74
2022/09/27 10:40:24;;;;;;;7.07;6.00;;;;;;;;;;5053023;28;20049;-76
2022/09/27 10:42:53;;;;;;;9.48;7.22;;;;;;;;;;5052750;28;20409;-74
2022/09/27 10:45:26;;;;;;;9.70;7.85;;;;;;;;;;5052923;28;20502;-74
2022/09/27 10:47:59;;;;;;;7.53;6.10;;;;;;;;;;5086376;28;20087;-73
2022/09/27 10:50:54;;;;;;;7.03;5.57;;;;;;;;;;5052946;28;20072;-73
2022/09/27 10:53:35;;;;;;;7.65;6.20;;;;;;;;;;5052756;28;20040;-73
2022/09/27 10:56:24;;;;;;;13.70;11.52;;;;;;;;;;5052929;28;20384;-73
2022/09/27 10:58:51;;;;;;;7.75;6.22;;;;;;;;;;5052751;28;20044;-73
2022/09/27 11:01:21;;;;;;;13.90;11.27;;;;;;;;;;5052618;28;20132;-73
2022/09/27 11:04:02;;;;;;;12.07;8.75;;;;;;;;;;5052546;28;20189;-74
2022/09/27 11:06:36;;;;;;;10.23;7.18;;;;;;;;;;5052647;28;20044;-74
2022/09/27 11:09:23;;;;;;;8.13;7.28;;;;;;;;;;5052700;28;20136;-73
2022/09/27 11:12:13;;;;;;;7.57;6.70;;;;;;;;;;5052474;28;20077;-73
2022/09/27 11:14:45;;;;;;;9.15;6.63;;;;;;;;;;5052704;28;20132;-73
2022/09/27 11:17:40;;;;;;;8.48;7.57;;;;;;;;;;5052337;28;20037;-73
2022/09/27 11:20:27;;;;;;;7.95;6.95;;;;;;;;;;5044662;28;20051;-74
2022/09/27 11:22:54;;;;;;;9.25;6.88;;;;;;;;;;5085681;28;20064;-74
2022/09/27 11:25:49;;;;;;;8.77;6.78;;;;;;;;;;5052095;28;20130;-74
2022/09/27 11:28:20;;;;;;;8.93;7.10;;;;;;;;;;5043559;28;20063;-73
2022/09/27 11:30:51;;;;;;;10.40;9.15;;;;;;;;;;5051851;28;20045;-74
2022/09/27 11:33:51;;;;;;;9.55;8.55;;;;;;;;;;5052657;28;20057;-75
2022/09/27 11:36:20;;;;;;;10.15;8.18;;;;;;;;;;5052012;28;20063;-75
2022/09/27 11:39:06;;;;;;;9.15;8.23;;;;;;;;;;5052013;28;20053;-75
2022/09/27 11:41:54;;;;;;;8.65;7.80;;;;;;;;;;5051859;28;20135;-75
2022/09/27 11:44:31;;;;;;;10.55;7.43;;;;;;;;;;5085184;28;20103;-75
2022/09/27 11:47:08;;;;;;;9.32;8.07;;;;;;;;;;5052078;28;20558;-73
2022/09/27 11:50:00;;;;;;;10.05;7.55;;;;;;;;;;5051895;28;20048;-73
2022/09/27 11:52:47;;;;;;;11.02;8.27;;;;;;;;;;5049086;28;20387;-73
2022/09/27 11:55:34;;;;;;;8.68;7.75;;;;;;;;;;5085096;28;20045;-74
2022/09/27 11:58:15;;;;;;;9.07;8.15;;;;;;;;;;5051418;28;20094;-75
2022/09/27 12:00:51;;;;;;;12.07;9.02;;;;;;;;;;5051446;28;20128;-75
2022/09/27 12:03:37;;;;;;;11.60;8.80;;;;;;;;;;5051414;28;20041;-74
2022/09/27 12:06:17;;;;;;;10.18;8.88;;;;;;;;;;5051206;28;20052;-75
2022/09/27 12:08:53;;;;;;;10.20;8.95;;;;;;;;;;5051242;28;20071;-75
2022/09/27 12:11:20;;;;;;;18.52;14.82;;;;;;;;;;5084840;28;20063;-75
2022/09/27 12:13:54;;;;;;;22.15;18.48;;;;;;;;;;5051317;28;20064;-75
2022/09/27 12:16:22;;;;;;;9.90;8.75;;;;;;;;;;5051398;28;20055;-75
2022/09/27 12:18:50;;;;;;;15.10;10.98;;;;;;;;;;5051079;28;20494;-75
2022/09/27 12:21:41;;;;;;;23.35;18.70;;;;;;;;;;5050950;28;20041;-75
2022/09/27 12:24:15;;;;;;;19.70;16.48;;;;;;;;;;5050688;28;20045;-75
2022/09/27 12:26:59;;;;;;;21.55;19.25;;;;;;;;;;5051266;28;20045;-75
2022/09/27 12:29:30;;;;;;;32.13;26.27;;;;;;;;;;5051207;28;20075;-73
2022/09/27 12:32:04;;;;;;;28.45;20.55;;;;;;;;;;5051267;28;20068;-75
2022/09/27 12:34:37;;;;;;;23.48;17.63;;;;;;;;;;5051053;28;20049;-75
2022/09/27 12:37:12;;;;;;;22.27;16.92;;;;;;;;;;5051219;28;20044;-75
2022/09/27 12:39:53;;;;;;;23.20;15.65;;;;;;;;;;5052881;28;20048;-75
2022/09/27 12:42:28;;;;;;;18.42;12.55;;;;;;;;;;5055291;28;20046;-75
2022/09/27 12:45:00;;;;;;;18.70;13.95;;;;;;;;;;5039025;28;20045;-74
2022/09/27 12:47:43;;;;;;;19.80;13.55;;;;;;;;;;5055066;28;20414;-74
2022/09/27 12:50:22;;;;;;;17.10;11.15;;;;;;;;;;5055377;28;20053;-74
2022/09/27 12:52:55;;;;;;;15.70;11.57;;;;;;;;;;5055389;28;20063;-74
2022/09/27 12:55:46;;;;;;;15.93;11.45;;;;;;;;;;5055081;28;20045;-75
2022/09/27 12:58:13;;;;;;;13.45;11.50;;;;;;;;;;5055047;28;20045;-75
2022/09/27 13:00:59;;;;;;;11.38;9.48;;;;;;;;;;5055025;28;20504;-75
2022/09/27 13:03:46;;;;;;;16.27;13.75;;;;;;;;;;5055016;28;20517;-75
2022/09/27 13:06:23;;;;;;;13.70;8.98;;;;;;;;;;5054817;28;20045;-75
2022/09/27 13:09:06;;;;;;;32.72;21.42;;;;;;;;;;5054751;28;20075;-75
2022/09/27 13:11:49;;;;;;;10.90;8.38;;;;;;;;;;5054743;28;20060;-75
2022/09/27 13:14:19;;;;;;;23.77;17.77;;;;;;;;;;5054940;28;20051;-74
2022/09/27 13:16:48;;;;;;;12.25;10.63;;;;;;;;;;5054564;28;20049;-75
2022/09/27 13:19:35;;;;;;;18.38;15.07;;;;;;;;;;5054778;28;20498;-74
2022/09/27 13:22:05;;;;;;;15.02;13.30;;;;;;;;;;5054571;28;20056;-75
2022/09/27 13:24:42;;;;;;;16.92;14.38;;;;;;;;;;5056160;28;20495;-74
2022/09/27 13:27:28;;;;;;;13.40;11.27;;;;;;;;;;5056045;28;20071;-74
2022/09/27 13:30:15;;;;;;;13.38;10.88;;;;;;;;;;5054484;28;20490;-74
2022/09/27 13:32:45;;;;;;;;;;;;;;;;;;5054736;28;20131;-75
2022/09/27 13:35:29;;;;;;;13.48;9.35;;;;;;;;;;5054076;28;20011;-75
2022/09/27 13:38:19;;;;;;;10.70;8.30;;;;;;;;;;5087714;28;20056;-75
2022/09/27 13:40:48;;;;;;;24.92;19.65;;;;;;;;;;5053553;28;20043;-72
2022/09/27 13:43:36;;;;;;;10.65;8.32;;;;;;;;;;5053422;28;20033;-73
2022/09/27 13:46:16;;;;;;;21.48;14.82;;;;;;;;;;5053580;28;20103;-72
2022/09/27 13:48:49;;;;;;;8.80;7.40;;;;;;;;;;5057778;28;20053;-73
2022/09/27 13:51:25;;;;;;;11.95;8.13;;;;;;;;;;5052459;28;20171;-73
2022/09/27 13:54:16;;;;;;;9.50;7.97;;;;;;;;;;5053338;28;20048;-73
2022/09/27 13:56:47;;;;;;;11.25;8.93;;;;;;;;;;5051823;28;20083;-73
2022/09/27 13:59:23;;;;;;;9.00;8.00;;;;;;;;;;5053658;28;20075;-73
2022/09/27 14:02:13;;;;;;;10.73;8.82;;;;;;;;;;5055135;28;20055;-74
2022/09/27 14:04:43;;;;;;;36.67;24.50;;;;;;;;;;5037296;28;20466;-74
2022/09/27 14:07:14;;;;;;;12.15;8.90;;;;;;;;;;5039629;28;20395;-74
2022/09/27 14:09:44;;;;;;;24.08;19.95;;;;;;;;;;5086731;28;20055;-76
2022/09/27 14:12:38;;;;;;;12.43;9.88;;;;;;;;;;5056148;28;20445;-75
2022/09/27 14:15:10;;;;;;;12.82;9.70;;;;;;;;;;5086232;28;20052;-79
2022/09/27 14:17:44;;;;;;;12.77;9.27;;;;;;;;;;5053597;28;20095;-74
2022/09/27 14:20:49;;;;;;;11.38;8.85;;;;;;;;;;5086964;28;20457;-76
2022/09/27 14:23:36;;;;;;;9.55;8.52;;;;;;;;;;5032123;28;20128;-76
2022/09/27 14:26:04;;;;;;;53.15;38.78;;;;;;;;;;5051856;28;20521;-76
2022/09/27 14:28:41;;;;;;;46.00;35.40;;;;;;;;;;5052929;28;20470;-76
2022/09/27 14:31:17;;;;;;;12.52;9.95;;;;;;;;;;5052605;28;20068;-76
2022/09/27 14:34:07;;;;;;;12.70;10.15;;;;;;;;;;5053635;28;20140;-76
2022/09/27 14:39:31;;;;;;;9.43;8.43;;;;;;;;;;5052677;28;20057;-77
2022/09/27 14:42:03;;;;;;;11.77;9.82;;;;;;;;;;5060195;28;20071;-77
2022/09/27 14:44:32;;;;;;;11.82;9.25;;;;;;;;;;5064434;28;20028;-78
2022/09/27 14:47:10;;;;;;;22.90;19.05;;;;;;;;;;5052497;28;20072;-77
2022/09/27 14:49:46;;;;;;;13.05;10.90;;;;;;;;;;5064844;28;20032;-77
2022/09/27 14:52:23;;;;;;;13.85;9.57;;;;;;;;;;5064667;28;20119;-77
2022/09/27 14:55:16;;;;;;;12.88;10.65;;;;;;;;;;5063451;28;20055;-77
2022/09/27 14:57:50;;;;;;;14.45;9.80;;;;;;;;;;5061207;28;20048;-77
2022/09/27 15:00:20;;;;;;;18.17;13.35;;;;;;;;;;5059061;28;20132;-75
2022/09/27 15:02:48;;;;;;;24.08;17.08;;;;;;;;;;5053561;28;20402;-77
2022/09/27 15:05:20;;;;;;;12.35;10.27;;;;;;;;;;5053743;28;20087;-77
2022/09/27 15:07:47;;;;;;;17.40;14.20;;;;;;;;;;5052509;28;20044;-76
2022/09/27 15:10:16;;;;;;;13.88;10.32;;;;;;;;;;5053546;28;20044;-77
2022/09/27 15:12:46;;;;;;;14.48;10.48;;;;;;;;;;5053710;28;20045;-77
2022/09/27 15:15:38;;;;;;;22.25;18.13;;;;;;;;;;5053270;28;20041;-77
2022/09/27 15:18:26;;;;;;;21.27;18.40;;;;;;;;;;5050585;28;20445;-78
2022/09/27 15:20:53;;;;;;;66.32;54.08;;;;;;;;;;5053101;28;20052;-78
2022/09/27 15:23:28;;;;;;;85.43;62.58;;;;;;;;;;5053119;28;20072;-78
2022/09/27 15:25:56;;;;;;;;;;;;;;;;;;5053610;28;20518;-78